Time;durP1;ratioP1;P1;durP2;ratioP2;P2;SDS_P1;SDS_P2;PMS_P1;PMS_P2;Temp;Humidity;BMP_temperature;BMP_pressure;BME280_temperature;BME280_humidity;BME280_pressure;Samples;Min_cycle;Max_cycle;Signal;HPM_P1;HPM_P2
2022/10/07 00:02:22;;;;;;;;;35.75;27.75;;;;;14.61;60.49;102176.38;5029721;28;45469;-59
2022/10/07 00:04:47;;;;;;;;;39.50;33.50;;;;;14.61;60.28;102168.34;5043843;28;45422;-57
2022/10/07 00:07:13;;;;;;;;;32.00;27.25;;;;;14.62;60.52;102169.22;5021171;28;46178;-57
2022/10/07 00:09:39;;;;;;;;;27.00;27.00;;;;;14.54;60.51;102166.88;5021725;28;45341;-62
2022/10/07 00:12:05;;;;;;;;;36.75;32.75;;;;;14.56;60.56;102167.69;5015608;28;45314;-59
2022/10/07 00:14:31;;;;;;;;;36.25;32.00;;;;;14.56;60.96;102165.00;5017506;28;45375;-60
2022/10/07 00:16:56;;;;;;;;;36.75;30.50;;;;;14.53;60.61;102158.94;5018369;28;46843;-59
2022/10/07 00:19:21;;;;;;;;;30.33;27.33;;;;;14.45;61.21;102151.25;5029179;28;46047;-58
2022/10/07 00:21:47;;;;;;;;;28.00;25.67;;;;;14.48;61.39;102155.63;5035166;28;45730;-64
2022/10/07 00:24:14;;;;;;;;;31.00;27.67;;;;;14.36;61.63;102146.31;5031870;28;45667;-59
2022/10/07 00:26:40;;;;;;;;;31.25;27.75;;;;;14.41;61.29;102149.63;5030411;28;47192;-64
2022/10/07 00:29:06;;;;;;;;;26.67;22.67;;;;;14.43;61.33;102158.44;5013856;28;45355;-62
2022/10/07 00:31:34;;;;;;;;;31.00;29.00;;;;;14.41;61.89;102152.31;5029814;28;45525;-61
2022/10/07 00:34:01;;;;;;;;;30.75;30.00;;;;;14.34;61.89;102150.88;5016827;28;45570;-59
2022/10/07 00:36:29;;;;;;;;;36.67;32.67;;;;;14.26;62.11;102139.66;5016687;28;47296;-63
2022/10/07 00:38:58;;;;;;;;;32.50;31.25;;;;;14.28;62.14;102149.34;5019622;28;45566;-62
2022/10/07 00:41:38;;;;;;;;;37.50;33.50;;;;;14.27;61.96;102158.31;5017920;28;45430;-62
2022/10/07 00:44:31;;;;;;;;;37.50;34.50;;;;;14.25;61.91;102148.63;5021227;28;45468;-63
2022/10/07 00:46:58;;;;;;;;;33.75;31.25;;;;;14.21;62.36;102147.03;5027170;28;46421;-62
2022/10/07 00:49:28;;;;;;;;;36.50;31.75;;;;;14.16;62.41;102145.44;5029176;28;45728;-60
2022/10/07 00:51:54;;;;;;;;;35.50;30.50;;;;;14.16;62.08;102149.91;5017678;28;45524;-62
2022/10/07 00:54:20;;;;;;;;;33.00;29.00;;;;;14.11;61.96;102136.75;5063372;28;45703;-61
2022/10/07 00:56:48;;;;;;;;;30.25;29.50;;;;;14.12;62.64;102140.31;5018164;28;47345;-61
2022/10/07 00:59:15;;;;;;;;;30.50;27.00;;;;;14.10;62.54;102134.16;5024619;28;46801;-60
2022/10/07 01:01:41;;;;;;;;;32.00;27.00;;;;;14.05;62.49;102131.66;5026367;28;45613;-59
2022/10/07 01:04:08;;;;;;;;;35.50;29.75;;;;;14.04;62.78;102127.25;5029907;28;45681;-60
2022/10/07 01:06:38;;;;;;;;;32.25;28.00;;;;;14.00;62.64;102125.69;5020240;28;46488;-62
2022/10/07 01:09:04;;;;;;;;;25.00;23.67;;;;;13.98;63.19;102127.56;5017856;27;46285;-55
2022/10/07 01:11:58;;;;;;;;;30.50;24.50;;;;;13.95;63.09;102127.72;5032559;28;45640;-60
2022/10/07 01:14:23;;;;;;;;;23.50;23.00;;;;;13.93;63.38;102121.53;5022444;28;45512;-60
2022/10/07 01:17:17;;;;;;;;;21.67;19.33;;;;;13.89;63.00;102117.28;5021026;28;45502;-59
2022/10/07 01:20:44;;;;;;;;;19.50;16.25;;;;;13.84;63.93;102117.50;5025011;28;45835;-64
2022/10/07 01:23:39;;;;;;;;;24.25;20.25;;;;;13.74;64.04;102112.63;5020056;28;46209;-64
2022/10/07 01:26:13;;;;;;;;;16.67;15.00;;;;;13.66;64.47;102107.59;5022500;28;45181;-64
2022/10/07 01:28:59;;;;;;;;;19.67;17.00;;;;;13.61;64.64;102106.09;5020778;28;46364;-63
2022/10/07 01:31:36;;;;;;;;;19.75;17.25;;;;;13.57;64.00;102102.69;5023441;28;45505;-62
2022/10/07 01:34:05;;;;;;;;;16.67;15.33;;;;;13.56;64.04;102096.47;5029258;28;45521;-67
2022/10/07 01:36:32;;;;;;;;;16.00;16.00;;;;;13.61;64.27;102108.75;5026372;28;45698;-59
2022/10/07 01:39:03;;;;;;;;;20.33;17.00;;;;;13.55;64.19;102097.41;5019863;28;46296;-66
2022/10/07 01:41:31;;;;;;;;;19.67;17.33;;;;;13.48;63.58;102090.59;5023279;28;45458;-61
2022/10/07 01:43:59;;;;;;;;;17.67;15.67;;;;;13.52;63.78;102089.50;5023324;28;46095;-60
2022/10/07 01:46:26;;;;;;;;;16.25;15.00;;;;;13.52;63.36;102089.50;5024406;28;45495;-55
2022/10/07 01:48:53;;;;;;;;;22.33;15.33;;;;;13.46;63.83;102079.13;5035818;28;45906;-56
2022/10/07 01:51:22;;;;;;;;;21.00;15.00;;;;;13.47;63.93;102091.53;5028070;28;45503;-55
2022/10/07 01:53:57;;;;;;;;;20.50;16.75;;;;;13.46;63.98;102079.13;5024273;28;45409;-53
2022/10/07 01:56:55;;;;;;;;;23.50;20.25;;;;;13.38;64.35;102065.22;5023144;28;45415;-62
2022/10/07 01:59:39;;;;;;;;;27.00;20.25;;;;;13.39;64.59;102071.41;5025032;28;46279;-63
2022/10/07 02:02:23;;;;;;;;;28.50;25.50;;;;;13.35;65.02;102068.03;5024893;28;45157;-58
2022/10/07 02:04:58;;;;;;;;;29.00;29.00;;;;;13.32;65.61;102060.16;5024792;28;45620;-60
2022/10/07 02:07:39;;;;;;;;;30.00;28.00;;;;;13.28;65.16;102058.53;5017084;28;45469;-65
2022/10/07 02:10:13;;;;;;;;;35.25;31.75;;;;;13.25;65.65;102059.53;5019754;28;46147;-61
2022/10/07 02:12:41;;;;;;;;;35.75;27.50;;;;;13.23;65.28;102056.06;5029986;28;45454;-64
2022/10/07 02:15:18;;;;;;;;;32.25;29.75;;;;;13.20;65.17;102050.88;5020101;28;45498;-61
2022/10/07 02:17:59;;;;;;;;;42.50;36.25;;;;;13.15;65.45;102047.50;5016360;28;45309;-59
2022/10/07 02:20:30;;;;;;;;;36.25;31.75;;;;;13.15;65.60;102043.94;5036742;28;46259;-59
2022/10/07 02:22:58;;;;;;;;;15.50;10.25;;;;;13.14;66.10;102044.88;5016038;28;45551;-54
2022/10/07 02:25:27;;;;;;;;;32.25;26.25;;;;;13.13;65.98;102033.31;5031031;28;46112;-58
2022/10/07 02:27:54;;;;;;;;;39.50;31.25;;;;;13.14;65.14;102028.84;5017036;28;45352;-58
2022/10/07 02:30:21;;;;;;;;;32.00;26.00;;;;;13.15;65.46;102035.94;5021475;28;45410;-64
2022/10/07 02:32:54;;;;;;;;;38.50;33.25;;;;;13.14;65.67;102034.19;5024404;28;45442;-63
2022/10/07 02:35:35;;;;;;;;;33.25;32.25;;;;;13.12;65.82;102020.91;5019889;28;45415;-58
2022/10/07 02:38:06;;;;;;;;;33.75;33.50;;;;;13.04;66.00;102017.72;5015939;28;45654;-64
2022/10/07 02:40:38;;;;;;;;;34.00;29.50;;;;;13.03;66.23;102018.66;5016328;28;46137;-60
2022/10/07 02:43:22;;;;;;;;;33.25;30.00;;;;;12.98;66.59;102013.50;5017129;28;45446;-65
2022/10/07 02:45:56;;;;;;;;;27.75;25.25;;;;;12.99;65.96;102014.38;5018678;28;45304;-62
2022/10/07 02:48:38;;;;;;;;;33.50;32.50;;;;;12.96;66.22;102015.38;5021769;28;45620;-63
2022/10/07 02:51:10;;;;;;;;;33.75;27.25;;;;;12.93;66.57;102007.50;5023211;28;45405;-62
2022/10/07 02:53:38;;;;;;;;;32.00;30.25;;;;;12.93;66.43;102010.19;5028942;28;45604;-60
2022/10/07 02:56:05;;;;;;;;;40.00;30.25;;;;;12.93;66.34;102010.19;5017858;28;45501;-58
2022/10/07 02:58:33;;;;;;;;;31.00;29.75;;;;;12.91;65.99;101998.69;5028148;28;47143;-61
2022/10/07 03:01:00;;;;;;;;;38.00;34.50;;;;;12.93;66.19;101999.50;5022986;28;46562;-61
2022/10/07 03:03:26;;;;;;;;;27.00;25.25;;;;;12.95;66.48;102002.09;5023086;28;45610;-60
2022/10/07 03:05:52;;;;;;;;;38.75;32.75;;;;;12.91;66.27;102000.50;5028357;28;45260;-61
2022/10/07 03:08:20;;;;;;;;;32.25;25.50;;;;;12.88;66.50;101996.13;5023851;28;45663;-58
2022/10/07 03:10:45;;;;;;;;;36.00;32.50;;;;;12.84;66.94;101991.88;5018197;28;45312;-63
2022/10/07 03:13:11;;;;;;;;;33.00;31.00;;;;;12.84;66.52;101994.53;5021477;28;45379;-56
2022/10/07 03:15:37;;;;;;;;;29.75;27.50;;;;;12.83;66.96;101990.13;5015936;28;45364;-59
2022/10/07 03:18:03;;;;;;;;;26.75;26.75;;;;;12.83;66.30;101987.47;5019031;28;45499;-58
2022/10/07 03:20:31;;;;;;;;;29.25;25.25;;;;;12.77;66.29;101982.41;5023270;28;46104;-60
2022/10/07 03:22:56;;;;;;;;;26.00;23.75;;;;;12.85;66.79;101990.94;5015547;28;45445;-58
2022/10/07 03:25:23;;;;;;;;;35.00;28.00;;;;;12.83;67.08;101991.94;5024185;28;45675;-60
2022/10/07 03:27:48;;;;;;;;;31.25;25.25;;;;;12.76;66.65;101980.69;5037658;28;45602;-61
2022/10/07 03:30:15;;;;;;;;;34.00;29.25;;;;;12.78;67.14;101983.28;5017852;28;46197;-61
2022/10/07 03:32:40;;;;;;;;;27.00;24.75;;;;;12.76;67.09;101977.09;5016823;28;45557;-60
2022/10/07 03:35:07;;;;;;;;;31.25;25.75;;;;;12.73;67.12;101975.44;5016465;28;45452;-58
2022/10/07 03:37:32;;;;;;;;;23.00;22.50;;;;;12.73;66.67;101975.44;5015765;28;45664;-60
2022/10/07 03:39:58;;;;;;;;;27.50;24.50;;;;;12.67;67.08;101965.03;5027431;28;46161;-60
2022/10/07 03:42:23;;;;;;;;;32.25;28.00;;;;;12.70;66.62;101971.09;5027263;28;45653;-56
2022/10/07 03:44:48;;;;;;;;;24.75;23.50;;;;;12.70;66.81;101970.25;5017105;28;45435;-59
2022/10/07 03:47:17;;;;;;;;;29.25;26.25;;;;;12.71;67.02;101974.66;5026162;28;45612;-59
2022/10/07 03:49:43;;;;;;;;;30.00;20.25;;;;;12.66;67.30;101968.66;5023562;28;46346;-62
2022/10/07 03:52:08;;;;;;;;;25.25;21.50;;;;;12.58;67.27;101952.94;5014491;28;45646;-55
2022/10/07 03:54:34;;;;;;;;;22.25;20.00;;;;;12.62;67.16;101972.34;5024585;28;45610;-57
2022/10/07 03:57:00;;;;;;;;;33.50;22.25;;;;;12.59;66.94;101961.81;5014922;28;45389;-56
2022/10/07 03:59:26;;;;;;;;;30.75;25.50;;;;;12.60;67.24;101971.56;5023681;28;46037;-55
2022/10/07 04:01:51;;;;;;;;;25.00;22.00;;;;;12.60;67.24;101968.91;5024441;28;45423;-61
2022/10/07 04:04:16;;;;;;;;;28.50;22.50;;;;;12.59;67.51;101961.81;5027848;28;45438;-59
2022/10/07 04:06:42;;;;;;;;;26.50;25.50;;;;;12.56;67.51;101959.28;5018035;28;45232;-60
2022/10/07 04:09:10;;;;;;;;;23.75;23.75;;;;;12.52;67.76;101963.03;5014219;28;45422;-60
2022/10/07 04:11:39;;;;;;;;;29.25;27.00;;;;;12.53;68.02;101962.97;5024686;28;45496;-58
2022/10/07 04:14:04;;;;;;;;;26.25;23.25;;;;;12.48;67.45;101953.41;5020047;28;45438;-59
2022/10/07 04:16:30;;;;;;;;;20.75;20.75;;;;;12.51;67.93;101958.63;5015140;28;45963;-62
2022/10/07 04:18:56;;;;;;;;;23.50;21.50;;;;;12.49;67.98;101963.13;5031584;28;46743;-58
2022/10/07 04:21:22;;;;;;;;;22.25;19.50;;;;;12.47;67.65;101957.88;5014952;28;45502;-63
2022/10/07 04:23:48;;;;;;;;;26.25;26.00;;;;;12.48;67.95;101961.41;5012023;28;45438;-57
2022/10/07 04:26:13;;;;;;;;;27.00;25.50;;;;;12.49;67.69;101955.13;5025879;28;46963;-61
2022/10/07 04:28:38;;;;;;;;;28.00;25.75;;;;;12.49;67.95;101955.13;5038394;28;46492;-64
2022/10/07 04:31:06;;;;;;;;;25.50;21.25;;;;;12.48;67.37;101956.94;5021907;28;46323;-64
2022/10/07 04:33:32;;;;;;;;;18.00;14.00;;;;;12.44;67.87;101960.69;5035383;28;45462;-63
2022/10/07 04:36:06;;;;;;;;;29.50;23.25;;;;;12.46;67.76;101952.59;5029049;28;45538;-63
2022/10/07 04:38:31;;;;;;;;;22.00;20.50;;;;;12.42;68.23;101951.00;5006814;28;45915;-62
2022/10/07 04:40:57;;;;;;;;;21.50;15.25;;;;;12.38;67.98;101945.81;5017471;28;45436;-57
2022/10/07 04:43:26;;;;;;;;;30.00;22.00;;;;;12.39;67.97;101947.53;5019644;28;45530;-65
2022/10/07 04:46:02;;;;;;;;;25.00;24.75;;;;;12.40;67.72;101949.28;5020643;28;45684;-60
2022/10/07 04:48:27;;;;;;;;;31.50;25.00;;;;;12.40;67.66;101956.41;5026985;28;46295;-59
2022/10/07 04:50:53;;;;;;;;;31.00;27.25;;;;;12.39;67.76;101944.00;5021867;28;45251;-60
2022/10/07 04:53:19;;;;;;;;;25.25;24.00;;;;;12.37;67.69;101949.41;5026480;28;45836;-63
2022/10/07 04:55:48;;;;;;;;;23.00;22.00;;;;;12.36;67.95;101938.78;5024406;28;45517;-61
2022/10/07 04:58:15;;;;;;;;;32.00;26.25;;;;;12.33;67.97;101942.44;5028666;28;45616;-65
2022/10/07 05:00:43;;;;;;;;;26.25;24.75;;;;;12.31;67.82;101928.31;5024696;28;45521;-61
2022/10/07 05:03:09;;;;;;;;;26.00;23.75;;;;;12.29;67.56;101937.31;5032714;28;45539;-64
2022/10/07 05:05:35;;;;;;;;;32.00;19.75;;;;;12.27;67.82;101924.03;5028253;28;45160;-60
2022/10/07 05:08:00;;;;;;;;;32.50;26.25;;;;;12.26;68.04;101932.97;5023711;28;45418;-58
2022/10/07 05:10:25;;;;;;;;;30.50;25.00;;;;;12.25;67.91;101930.38;5032432;28;45547;-57
2022/10/07 05:12:51;;;;;;;;;26.75;25.25;;;;;12.24;67.84;101933.94;5018999;28;45522;-55
2022/10/07 05:15:16;;;;;;;;;29.50;26.25;;;;;12.21;68.40;101929.63;5023771;28;45692;-58
2022/10/07 05:17:42;;;;;;;;;25.00;22.75;;;;;12.17;68.10;101933.34;5038033;28;45493;-63
2022/10/07 05:20:08;;;;;;;;;26.50;19.00;;;;;12.16;68.30;101944.09;5038107;28;45443;-63
2022/10/07 05:22:34;;;;;;;;;26.75;24.75;;;;;12.15;67.68;101935.22;5019143;28;45474;-60
2022/10/07 05:25:00;;;;;;;;;30.25;25.75;;;;;12.13;68.29;101936.22;5025070;28;45558;-58
2022/10/07 05:27:26;;;;;;;;;34.50;24.50;;;;;12.08;68.15;101931.91;5021021;28;46273;-59
2022/10/07 05:29:51;;;;;;;;;30.00;25.25;;;;;12.09;68.12;101927.44;5017901;28;45544;-58
2022/10/07 05:32:17;;;;;;;;;26.50;24.75;;;;;12.09;67.81;101936.31;5017712;28;45382;-63
2022/10/07 05:34:43;;;;;;;;;25.50;24.25;;;;;12.05;67.62;101923.19;5024212;28;45240;-59
2022/10/07 05:37:10;;;;;;;;;29.50;26.75;;;;;12.10;67.75;101930.06;5017241;28;46190;-56
2022/10/07 05:39:36;;;;;;;;;21.75;19.50;;;;;12.07;67.68;101929.31;5017854;28;45288;-70
2022/10/07 05:42:02;;;;;;;;;29.50;26.00;;;;;12.05;68.28;101933.84;5034673;28;45458;-57
2022/10/07 05:44:30;;;;;;;;;35.25;24.50;;;;;12.02;67.96;101920.66;5018205;28;45455;-59
2022/10/07 05:46:55;;;;;;;;;23.25;20.25;;;;;12.01;68.19;101926.91;5035498;28;46316;-63
2022/10/07 05:49:21;;;;;;;;;27.50;24.00;;;;;12.01;68.43;101922.47;5033764;28;45343;-58
2022/10/07 05:51:46;;;;;;;;;26.75;24.25;;;;;12.02;68.04;101928.66;5017688;28;45335;-59
2022/10/07 05:54:11;;;;;;;;;32.75;24.75;;;;;12.04;67.83;101933.00;5018089;28;45395;-58
2022/10/07 05:56:37;;;;;;;;;21.75;19.25;;;;;12.02;68.07;101920.66;5016030;28;47486;-60
2022/10/07 05:59:03;;;;;;;;;31.00;27.00;;;;;12.01;68.03;101921.59;5027797;28;45587;-53
2022/10/07 06:01:28;;;;;;;;;13.75;13.75;;;;;12.09;68.49;101932.78;5025829;28;45502;-54
2022/10/07 06:03:58;;;;;;;;;25.75;18.75;;;;;12.10;68.18;101931.84;5029726;28;45267;-49
2022/10/07 06:06:24;;;;;;;;;32.25;26.75;;;;;12.12;67.88;101927.34;5032199;28;46253;-57
2022/10/07 06:08:51;;;;;;;;;27.75;25.25;;;;;12.10;68.02;101930.06;5015109;28;45528;-54
2022/10/07 06:14:03;;;;;;;;;26.75;23.00;;;;;12.14;67.62;101922.81;5016820;28;45319;-57
2022/10/07 06:16:28;;;;;;;;;30.50;25.75;;;;;12.18;67.77;101928.88;5005926;28;46328;-54
2022/10/07 06:18:54;;;;;;;;;27.50;24.75;;;;;12.22;68.09;101914.47;5011758;28;45228;-58
2022/10/07 06:21:26;;;;;;;;;22.00;21.25;;;;;12.22;67.65;101909.16;5019956;28;47064;-58
2022/10/07 06:23:53;;;;;;;;;25.00;20.00;;;;;12.31;67.79;101917.63;4996785;28;45408;-51
2022/10/07 06:26:20;;;;;;;;;20.75;17.50;;;;;12.33;68.49;101918.44;5033023;28;45440;-62
2022/10/07 06:28:46;;;;;;;;;21.75;20.25;;;;;12.37;67.79;101917.41;5050659;28;45697;-58
2022/10/07 06:31:21;;;;;;;;;20.50;16.25;;;;;12.34;68.10;101917.50;5048860;28;45666;-64
2022/10/07 06:33:48;;;;;;;;;18.25;17.75;;;;;12.39;68.48;101920.88;5015956;28;45419;-58
2022/10/07 06:36:14;;;;;;;;;29.00;22.25;;;;;12.37;69.43;101908.53;5009755;28;46301;-69
2022/10/07 06:38:48;;;;;;;;;22.00;16.50;;;;;12.56;68.93;101919.25;5014439;28;45375;-66
2022/10/07 06:41:14;;;;;;;;;21.25;17.25;;;;;12.55;68.12;101922.88;5032465;28;45426;-65
2022/10/07 06:43:40;;;;;;;;;18.50;18.00;;;;;12.51;69.30;101907.94;5031764;28;45514;-58
2022/10/07 06:46:14;;;;;;;;;23.25;21.00;;;;;12.59;68.68;101925.31;5013245;28;46569;-56
2022/10/07 06:48:41;;;;;;;;;22.00;19.25;;;;;12.58;68.53;101922.72;4995420;28;45578;-52
2022/10/07 06:51:10;;;;;;;;;21.00;18.75;;;;;12.56;68.31;101920.13;5003170;28;45384;-58
2022/10/07 06:53:35;;;;;;;;;19.00;15.25;;;;;12.60;68.85;101918.19;5028514;28;45283;-52
2022/10/07 06:56:02;;;;;;;;;23.25;20.25;;;;;12.58;68.91;101912.06;5034709;28;45959;-60
2022/10/07 06:58:28;;;;;;;;;22.25;15.25;;;;;12.65;68.14;101925.06;5019599;28;45358;-54
2022/10/07 07:00:54;;;;;;;;;21.50;17.50;;;;;12.64;67.98;101922.47;5025867;28;46341;-66
2022/10/07 07:03:20;;;;;;;;;19.00;15.25;;;;;12.65;67.58;101925.06;5048589;28;45579;-61
2022/10/07 07:05:46;;;;;;;;;16.25;16.25;;;;;12.68;68.31;101934.75;5035284;28;46104;-54
2022/10/07 07:08:14;;;;;;;;;19.50;17.75;;;;;12.63;66.88;101920.72;5028062;28;45348;-69
2022/10/07 07:10:41;;;;;;;;;19.33;15.33;;;;;12.62;67.24;101911.84;5027302;28;46520;-57
2022/10/07 07:13:08;;;;;;;;;20.00;16.50;;;;;12.72;67.49;101930.13;5035969;28;45446;-52
2022/10/07 07:15:34;;;;;;;;;17.50;17.00;;;;;12.66;67.19;101917.94;5026732;28;46291;-55
2022/10/07 07:18:01;;;;;;;;;16.00;13.00;;;;;12.80;67.92;101933.34;5014863;28;45429;-56
2022/10/07 07:20:33;;;;;;;;;21.25;18.00;;;;;12.83;67.85;101934.06;5008282;28;45529;-60
2022/10/07 07:23:06;;;;;;;;;17.25;14.25;;;;;12.87;67.44;101922.31;5016340;28;45632;-61
2022/10/07 07:25:35;;;;;;;;;20.25;16.75;;;;;12.91;67.03;101921.25;5024226;28;45541;-62
2022/10/07 07:28:02;;;;;;;;;19.75;18.00;;;;;12.90;66.75;101911.53;5018682;28;45414;-51
2022/10/07 07:30:28;;;;;;;;;21.00;17.25;;;;;12.99;66.94;101920.91;5004199;28;45194;-67
2022/10/07 07:32:54;;;;;;;;;20.75;16.25;;;;;12.97;66.97;101910.28;5017070;28;45334;-68
2022/10/07 07:35:21;;;;;;;;;18.25;18.00;;;;;13.06;67.08;101916.16;5015959;28;45425;-64
2022/10/07 07:37:47;;;;;;;;;19.75;15.75;;;;;13.02;67.29;101895.84;5010785;28;45557;-65
2022/10/07 07:40:12;;;;;;;;;21.50;20.00;;;;;13.14;66.64;101914.00;5003391;28;45455;-66
2022/10/07 07:42:38;;;;;;;;;21.00;18.25;;;;;13.20;67.48;101919.09;5021708;28;46695;-61
2022/10/07 07:45:04;;;;;;;;;14.00;14.00;;;;;13.23;66.68;101906.47;5013360;28;45887;-57
2022/10/07 07:47:29;;;;;;;;;19.50;16.00;;;;;13.30;67.01;101911.53;5016507;28;46425;-60
2022/10/07 07:49:54;;;;;;;;;25.00;19.00;;;;;13.30;65.84;101906.19;5017507;28;45618;-63
2022/10/07 07:52:21;;;;;;;;;24.00;21.50;;;;;13.34;65.70;101905.97;5020488;28;45651;-62
2022/10/07 07:54:47;;;;;;;;;22.00;20.67;;;;;13.35;65.77;101898.81;5014527;28;46931;-67
2022/10/07 07:57:12;;;;;;;;;15.00;15.00;;;;;13.46;65.63;101915.22;5023949;28;45529;-64
2022/10/07 07:59:38;;;;;;;;;17.75;16.50;;;;;13.52;64.78;101907.75;5025476;28;45348;-63
2022/10/07 08:02:05;;;;;;;;;15.67;13.33;;;;;13.55;64.29;101902.31;5038329;28;45590;-63
2022/10/07 08:04:30;;;;;;;;;19.67;16.33;;;;;13.63;64.60;101903.72;5035007;28;45467;-56
2022/10/07 08:06:56;;;;;;;;;14.33;14.00;;;;;13.61;64.73;101889.56;5036336;28;45324;-58
2022/10/07 08:09:21;;;;;;;;;19.33;15.00;;;;;13.71;63.87;101902.44;5028471;28;45399;-64
2022/10/07 08:11:47;;;;;;;;;22.67;18.33;;;;;13.78;63.99;101902.97;5027568;28;45564;-58
2022/10/07 08:14:15;;;;;;;;;21.00;16.67;;;;;13.82;63.94;101899.25;5020618;28;45908;-66
2022/10/07 08:16:48;;;;;;;;;11.00;11.00;;;;;13.90;63.57;101897.03;5018170;28;45648;-73
2022/10/07 08:19:14;;;;;;;;;14.33;12.33;;;;;13.97;62.45;101903.81;5029031;28;45445;-66
2022/10/07 08:21:40;;;;;;;;;14.00;11.00;;;;;14.02;62.44;101904.44;5017837;28;45534;-73
2022/10/07 08:24:07;;;;;;;;;14.67;12.33;;;;;14.08;62.56;101896.13;5016562;28;45444;-58
2022/10/07 08:26:33;;;;;;;;;12.67;10.00;;;;;14.12;62.38;101887.00;5028643;28;45474;-70
2022/10/07 08:29:00;;;;;;;;;16.00;15.67;;;;;14.21;62.23;101884.81;5017159;28;45359;-62
2022/10/07 08:31:29;;;;;;;;;18.67;13.33;;;;;14.27;61.94;101881.81;5018850;28;45576;-52
2022/10/07 08:34:01;;;;;;;;;18.00;14.00;;;;;14.34;61.47;101883.25;5018952;28;45853;-50
2022/10/07 08:36:32;;;;;;;;;16.67;16.00;;;;;14.40;60.75;101883.78;5023787;28;45672;-50
2022/10/07 08:38:58;;;;;;;;;14.33;14.33;;;;;14.48;61.39;101880.75;5029867;28;45464;-54
2022/10/07 08:41:35;;;;;;;;;10.00;9.00;;;;;14.60;59.99;101876.59;5026503;28;45550;-50
2022/10/07 08:44:12;;;;;;;;;9.67;9.00;;;;;14.68;59.57;101875.22;5032743;28;46250;-53
2022/10/07 08:46:45;;;;;;;;;13.00;9.00;;;;;14.71;59.21;101859.00;5018938;28;45531;-56
2022/10/07 08:49:15;;;;;;;;;10.67;8.67;;;;;14.83;57.92;101868.19;5021551;28;45637;-60
2022/10/07 08:51:47;;;;;;;;;12.67;8.67;;;;;14.89;57.87;101873.22;5033088;28;45672;-70
2022/10/07 08:54:15;;;;;;;;;10.00;8.67;;;;;14.98;58.72;101863.84;5033374;28;45553;-57
2022/10/07 08:56:42;;;;;;;;;9.67;8.67;;;;;15.09;58.73;101869.44;5017526;28;45505;-52
2022/10/07 08:59:17;;;;;;;;;11.00;11.00;;;;;15.21;58.78;101873.28;5018767;28;45369;-49
2022/10/07 09:01:50;;;;;;;;;12.00;10.00;;;;;15.33;58.09;101865.41;5016289;28;45542;-52
2022/10/07 09:04:31;;;;;;;;;15.67;10.33;;;;;15.45;57.64;101849.59;5031824;28;46072;-66
2022/10/07 09:06:57;;;;;;;;;10.00;9.33;;;;;15.57;57.51;101848.91;5023024;28;45505;-65
2022/10/07 09:09:41;;;;;;;;;13.00;12.00;;;;;15.65;57.25;101838.66;5030378;28;45294;-57
2022/10/07 09:12:17;;;;;;;;;13.67;10.33;;;;;15.84;57.05;101836.63;5026579;28;45569;-54
2022/10/07 09:14:46;;;;;;;;;18.00;10.00;;;;;15.96;55.55;101842.22;4998278;28;46278;-56
2022/10/07 09:17:20;;;;;;;;;12.00;10.67;;;;;16.01;55.19;101832.06;5016364;28;45424;-63
2022/10/07 09:19:57;;;;;;;;;9.00;9.00;;;;;16.03;55.47;101828.38;5023095;28;45551;-50
2022/10/07 09:22:28;;;;;;;;;14.00;10.00;;;;;16.11;55.21;101835.94;5010395;28;45526;-50
2022/10/07 09:25:13;;;;;;;;;9.00;6.00;;;;;16.12;56.25;101821.56;5029308;28;47166;-57
2022/10/07 09:27:39;;;;;;;;;8.67;8.00;;;;;16.21;54.81;101812.97;5008154;28;45396;-64
2022/10/07 09:30:14;;;;;;;;;10.33;7.67;;;;;16.32;54.04;101815.03;5017812;28;45466;-51
2022/10/07 09:32:46;;;;;;;;;6.00;6.00;;;;;16.39;54.05;101821.72;5005681;28;45576;-62
2022/10/07 09:35:18;;;;;;;;;9.33;9.33;;;;;16.44;53.94;101814.28;5015675;28;45402;-59
2022/10/07 09:37:53;;;;;;;;;6.67;5.67;;;;;16.52;53.33;101809.28;5004203;28;45301;-59
2022/10/07 09:40:26;;;;;;;;;8.00;3.33;;;;;16.55;53.05;101806.44;5013436;28;45328;-54
2022/10/07 09:42:53;;;;;;;;;7.67;4.67;;;;;16.57;52.88;101809.00;5000185;28;45234;-60
2022/10/07 09:45:32;;;;;;;;;6.67;6.67;;;;;16.52;52.83;101802.09;5018275;28;45440;-71
2022/10/07 09:48:08;;;;;;;;;5.33;5.00;;;;;16.62;53.81;101798.84;5026269;28;45422;-61
2022/10/07 09:50:39;;;;;;;;;5.67;4.00;;;;;16.66;52.60;101786.94;5053230;28;45422;-56
2022/10/07 09:53:20;;;;;;;;;5.67;5.67;;;;;16.66;53.42;101785.09;5013240;28;45321;-68
2022/10/07 09:55:45;;;;;;;;;10.00;8.67;;;;;16.73;53.03;101793.69;4998260;28;46281;-54
2022/10/07 09:58:31;;;;;;;;;10.33;9.33;;;;;16.69;53.81;101771.53;5005887;28;45723;-66
2022/10/07 10:00:59;;;;;;;;;11.00;8.33;;;;;16.75;53.24;101772.97;5016914;28;45514;-60
2022/10/07 10:03:33;;;;;;;;;15.33;11.00;;;;;16.82;53.29;101777.00;5017783;28;45443;-58
2022/10/07 10:05:58;;;;;;;;;9.33;8.00;;;;;16.93;51.76;101768.25;5017592;28;46477;-58
2022/10/07 10:08:31;;;;;;;;;14.00;8.67;;;;;16.95;52.60;101767.19;5031724;28;46013;-60
2022/10/07 10:11:00;;;;;;;;;10.67;8.00;;;;;17.04;51.97;101769.28;5016616;28;45354;-56
2022/10/07 10:13:34;;;;;;;;;12.67;7.67;;;;;17.10;52.54;101766.22;5014787;28;45609;-62
2022/10/07 10:16:02;;;;;;;;;7.67;7.67;;;;;17.20;51.72;101757.56;5016348;28;46205;-61
2022/10/07 10:18:34;;;;;;;;;10.33;8.00;;;;;17.25;51.26;101758.09;5017076;28;45489;-56
2022/10/07 10:21:28;;;;;;;;;10.33;7.00;;;;;17.35;51.52;101753.84;5016181;28;45458;-61
2022/10/07 10:24:04;;;;;;;;;6.00;6.00;;;;;17.43;50.99;101746.13;5016281;28;45634;-52
2022/10/07 10:26:42;;;;;;;;;8.00;6.00;;;;;17.51;51.00;101751.88;5015602;28;45390;-61
2022/10/07 10:29:20;;;;;;;;;3.00;3.00;;;;;17.50;49.39;101747.44;5015228;28;45458;-62
2022/10/07 10:32:00;;;;;;;;;4.67;3.00;;;;;17.56;49.83;101747.03;5015737;28;45659;-62
2022/10/07 10:34:49;;;;;;;;;2.67;2.67;;;;;17.68;49.23;101737.28;5016636;28;45391;-60
2022/10/07 10:37:23;;;;;;;;;7.67;3.00;;;;;17.73;48.91;101724.44;5015847;28;46073;-67
2022/10/07 10:39:56;;;;;;;;;2.67;2.67;;;;;17.89;48.46;101726.91;5016116;28;45475;-60
2022/10/07 10:42:34;;;;;;;;;6.00;4.00;;;;;17.96;48.31;101726.38;5016468;28;45252;-57
2022/10/07 10:45:12;;;;;;;;;7.33;4.00;;;;;18.01;48.27;101715.31;5016229;28;45438;-59
2022/10/07 10:48:22;;;;;;;;;4.67;2.67;;;;;18.16;47.32;101730.38;5015990;28;46144;-60
2022/10/07 10:50:53;;;;;;;;;9.00;5.00;;;;;18.26;47.88;101720.69;4974000;28;45544;-57
2022/10/07 10:53:28;;;;;;;;;2.67;2.67;;;;;18.34;47.41;101722.84;4974509;28;45397;-59
2022/10/07 10:56:12;;;;;;;;;3.67;3.00;;;;;18.45;47.32;101719.38;4990928;28;45581;-57
2022/10/07 10:59:08;;;;;;;;;5.67;3.00;;;;;18.51;46.63;101713.56;5016493;28;46251;-54
2022/10/07 11:01:37;;;;;;;;;5.33;2.00;;;;;18.61;45.35;101703.84;5016417;28;45223;-51
2022/10/07 11:04:29;;;;;;;;;6.67;3.67;;;;;18.75;45.18;101703.75;5023989;28;45331;-54
2022/10/07 11:07:16;;;;;;;;;7.67;6.67;;;;;18.81;46.13;101689.81;5021609;28;45696;-51
2022/10/07 11:09:55;;;;;;;;;5.00;3.00;;;;;18.92;44.93;101693.56;5016677;28;46162;-52
2022/10/07 11:12:27;;;;;;;;;2.00;2.00;;;;;18.95;44.91;101677.16;5015378;28;45486;-56
2022/10/07 11:15:00;;;;;;;;;4.67;3.00;;;;;19.03;44.28;101675.63;5031979;28;45458;-55
2022/10/07 11:17:30;;;;;;;;;7.00;2.67;;;;;19.16;44.62;101680.97;5016828;28;45346;-51
2022/10/07 11:20:04;;;;;;;;;3.00;3.00;;;;;19.24;43.50;101675.84;5016069;28;45709;-49
2022/10/07 11:22:38;;;;;;;;;3.00;3.00;;;;;19.36;43.34;101674.91;5016428;28;45299;-57
2022/10/07 11:25:22;;;;;;;;;3.00;3.00;;;;;19.48;43.55;101677.66;5016389;28;45337;-52
2022/10/07 11:27:50;;;;;;;;;5.00;5.00;;;;;19.49;43.11;101669.44;5016422;28;45383;-56
2022/10/07 11:30:19;;;;;;;;;8.67;3.00;;;;;19.55;44.66;101669.03;5016812;28;46362;-53